Time;durP1;ratioP1;P1;durP2;ratioP2;P2;SDS_P1;SDS_P2;PMS_P1;PMS_P2;Temp;Humidity;BMP_temperature;BMP_pressure;BME280_temperature;BME280_humidity;BME280_pressure;Samples;Min_cycle;Max_cycle;Signal;HPM_P1;HPM_P2
2022/10/15 00:00:06;;;;;;;12.85;6.00;;;11.00;99.90;;;;;;5047668;28;20043;-64
2022/10/15 00:02:33;;;;;;;7.63;4.05;;;11.00;99.90;;;;;;5046869;28;20045;-62
2022/10/15 00:05:00;;;;;;;10.52;3.35;;;10.90;99.90;;;;;;5047819;28;20071;-63
2022/10/15 00:07:27;;;;;;;6.93;2.45;;;10.80;99.90;;;;;;5047742;28;20043;-62
2022/10/15 00:09:54;;;;;;;5.68;2.60;;;10.70;99.90;;;;;;5046808;28;20045;-65
2022/10/15 00:12:21;;;;;;;7.93;3.85;;;10.70;99.90;;;;;;5047552;28;20044;-62
2022/10/15 00:14:47;;;;;;;5.45;2.60;;;10.70;99.90;;;;;;5047815;28;20064;-63
2022/10/15 00:17:14;;;;;;;8.35;2.53;;;10.70;99.90;;;;;;5046135;28;20059;-63
2022/10/15 00:19:41;;;;;;;11.85;2.88;;;10.60;99.90;;;;;;5027863;28;20060;-63
2022/10/15 00:22:08;;;;;;;5.63;2.97;;;10.60;99.90;;;;;;5041848;28;20049;-62
2022/10/15 00:24:35;;;;;;;4.95;2.22;;;10.60;99.90;;;;;;5047817;28;20455;-63
2022/10/15 00:27:02;;;;;;;4.15;2.65;;;10.60;99.90;;;;;;5051148;28;20162;-63
2022/10/15 00:29:29;;;;;;;6.43;2.60;;;10.50;99.90;;;;;;5051076;28;20053;-63
2022/10/15 00:31:56;;;;;;;3.53;2.22;;;10.50;99.90;;;;;;5051344;28;20041;-63
2022/10/15 00:34:22;;;;;;;4.45;2.38;;;10.50;99.90;;;;;;5051047;28;20053;-63
2022/10/15 00:36:49;;;;;;;4.95;2.22;;;10.40;99.90;;;;;;5050936;28;20476;-62
2022/10/15 00:39:16;;;;;;;4.07;2.03;;;10.30;99.90;;;;;;5051118;28;20049;-63
2022/10/15 00:41:43;;;;;;;3.15;1.80;;;10.20;99.90;;;;;;5049547;28;20053;-63
2022/10/15 00:44:27;;;;;;;3.65;1.88;;;10.20;99.90;;;;;;5051049;28;20459;-63
2022/10/15 00:47:17;;;;;;;7.10;2.22;;;10.20;99.90;;;;;;5050929;28;20044;-63
2022/10/15 00:49:55;;;;;;;4.60;1.95;;;10.20;99.90;;;;;;5033682;28;20052;-63
2022/10/15 00:52:41;;;;;;;9.90;2.33;;;10.10;99.90;;;;;;5049402;28;20523;-62
2022/10/15 00:55:15;;;;;;;11.32;2.72;;;10.10;99.90;;;;;;5049905;28;20409;-63
2022/10/15 00:57:43;;;;;;;;;;;10.20;99.90;;;;;;5049897;28;20037;-63
2022/10/15 01:00:11;;;;;;;4.47;3.00;;;10.10;99.90;;;;;;5049484;28;19925;-63
2022/10/15 01:02:38;;;;;;;6.00;2.28;;;10.10;99.90;;;;;;5049345;28;20144;-63
2022/10/15 01:05:05;;;;;;;4.95;2.42;;;10.10;99.90;;;;;;5050459;28;20045;-62
2022/10/15 01:07:32;;;;;;;4.25;3.25;;;10.00;99.90;;;;;;5049522;28;20097;-64
2022/10/15 01:09:59;;;;;;;5.55;3.03;;;9.90;99.90;;;;;;5050664;28;20044;-63
2022/10/15 01:12:37;;;;;;;6.20;2.45;;;9.90;99.90;;;;;;5032913;28;20057;-62
2022/10/15 01:15:09;;;;;;;6.28;2.00;;;9.90;99.90;;;;;;5049113;28;20055;-62
2022/10/15 01:18:05;;;;;;;3.25;2.35;;;9.80;99.90;;;;;;5050389;28;20063;-62
2022/10/15 01:20:59;;;;;;;9.27;2.60;;;9.80;99.90;;;;;;5022715;28;20047;-62
2022/10/15 01:23:35;;;;;;;4.95;3.13;;;9.80;99.90;;;;;;5050211;28;20051;-63
2022/10/15 01:26:28;;;;;;;4.47;2.30;;;9.90;99.90;;;;;;5050502;28;20234;-63
2022/10/15 01:29:19;;;;;;;5.20;3.20;;;9.80;99.90;;;;;;4699043;28;10000028;-63
2022/10/15 01:32:12;;;;;;;4.75;3.22;;;9.80;99.90;;;;;;5047864;28;20061;-63
2022/10/15 01:35:03;;;;;;;6.30;2.20;;;9.80;99.90;;;;;;5049287;28;20056;-63
2022/10/15 01:37:59;;;;;;;5.38;2.17;;;9.70;99.90;;;;;;5029214;28;20045;-63
2022/10/15 01:40:28;;;;;;;4.20;2.50;;;9.60;99.90;;;;;;5047440;28;20052;-63
2022/10/15 01:42:59;;;;;;;4.20;2.13;;;9.60;99.90;;;;;;5048983;28;20049;-64
2022/10/15 01:45:47;;;;;;;3.40;2.08;;;9.60;99.90;;;;;;5049790;28;20128;-64
2022/10/15 01:48:14;;;;;;;5.53;2.00;;;9.50;99.90;;;;;;5048679;28;20055;-63
2022/10/15 01:50:46;;;;;;;4.55;2.10;;;9.50;99.90;;;;;;5048265;28;20518;-62
2022/10/15 01:53:25;;;;;;;4.95;2.85;;;9.50;99.90;;;;;;5050014;28;20123;-62
2022/10/15 01:55:58;;;;;;;3.40;1.80;;;9.50;99.90;;;;;;5048417;28;20118;-63
2022/10/15 01:58:25;;;;;;;9.97;2.40;;;9.50;99.90;;;;;;5048521;28;20103;-61
2022/10/15 02:00:53;;;;;;;5.45;2.53;;;9.40;99.90;;;;;;5029462;28;20049;-62
2022/10/15 02:03:20;;;;;;;6.90;2.65;;;9.40;99.90;;;;;;5048814;28;20132;-62
2022/10/15 02:05:50;;;;;;;4.00;2.00;;;9.40;99.90;;;;;;5049028;28;20488;-62
2022/10/15 02:08:35;;;;;;;5.45;2.20;;;9.30;99.90;;;;;;5048351;28;20268;-62
2022/10/15 02:11:15;;;;;;;3.08;2.10;;;9.40;99.90;;;;;;5049006;28;20522;-63
2022/10/15 02:13:55;;;;;;;5.72;2.75;;;9.40;99.90;;;;;;5029273;28;20049;-63
2022/10/15 02:16:29;;;;;;;5.82;2.78;;;9.40;99.90;;;;;;5046450;28;20061;-64
2022/10/15 02:19:05;;;;;;;;;;;9.40;99.90;;;;;;5049572;28;20049;-62
2022/10/15 02:21:40;;;;;;;3.45;2.25;;;9.40;99.90;;;;;;5048759;28;19920;-61
2022/10/15 02:24:32;;;;;;;12.93;3.47;;;9.50;99.90;;;;;;5032423;28;20412;-62
2022/10/15 02:26:59;;;;;;;8.40;3.88;;;9.50;99.90;;;;;;5047686;28;20045;-63
2022/10/15 02:29:26;;;;;;;8.82;4.22;;;9.60;99.90;;;;;;5031526;28;20132;-62
2022/10/15 02:31:53;;;;;;;9.65;3.53;;;9.60;99.90;;;;;;5048623;28;20411;-63
2022/10/15 02:34:21;;;;;;;8.75;3.63;;;9.70;99.90;;;;;;5031370;28;20113;-62
2022/10/15 02:36:47;;;;;;;6.28;4.00;;;9.70;99.90;;;;;;5048604;28;20051;-62
2022/10/15 02:39:19;;;;;;;7.65;4.18;;;9.70;99.90;;;;;;5031186;28;20140;-63
2022/10/15 02:41:46;;;;;;;9.48;4.82;;;9.80;99.90;;;;;;5031118;28;20047;-63
2022/10/15 02:44:13;;;;;;;10.27;4.10;;;9.80;99.90;;;;;;5031068;28;20041;-61
2022/10/15 02:46:39;;;;;;;7.35;4.13;;;9.80;99.90;;;;;;5048449;28;20067;-62
2022/10/15 02:49:06;;;;;;;18.98;4.85;;;9.80;99.90;;;;;;5048378;28;20048;-61
2022/10/15 02:51:33;;;;;;;9.77;4.90;;;9.90;99.90;;;;;;5048632;28;20068;-62
2022/10/15 02:54:01;;;;;;;13.18;6.25;;;10.00;99.90;;;;;;5046553;28;20069;-64
2022/10/15 02:56:28;;;;;;;12.38;6.53;;;9.90;99.90;;;;;;5046762;28;20053;-62
2022/10/15 02:58:55;;;;;;;20.15;6.95;;;9.90;99.90;;;;;;5048336;28;20128;-63
2022/10/15 03:01:22;;;;;;;13.55;6.25;;;9.90;99.90;;;;;;5048239;28;20056;-62
2022/10/15 03:03:49;;;;;;;10.82;5.22;;;9.90;99.90;;;;;;5047298;28;20049;-62
2022/10/15 03:06:16;;;;;;;16.25;8.32;;;9.90;99.90;;;;;;5046434;28;20057;-62
2022/10/15 03:08:43;;;;;;;10.10;6.28;;;9.90;99.90;;;;;;5047728;28;20039;-62
2022/10/15 03:11:10;;;;;;;11.55;6.63;;;9.90;99.90;;;;;;5047789;28;20476;-63
2022/10/15 03:13:37;;;;;;;12.10;6.28;;;10.00;99.90;;;;;;5047007;28;20051;-63
2022/10/15 03:16:05;;;;;;;12.73;6.03;;;9.90;99.90;;;;;;5048114;28;20045;-63
2022/10/15 03:18:32;;;;;;;13.55;6.60;;;9.80;99.90;;;;;;5047887;28;20638;-62
2022/10/15 03:21:05;;;;;;;13.98;7.03;;;9.80;99.90;;;;;;5048343;28;20049;-62
2022/10/15 03:23:32;;;;;;;12.15;6.47;;;9.80;99.90;;;;;;5047793;28;20060;-61
2022/10/15 03:26:03;;;;;;;8.90;5.85;;;9.70;99.90;;;;;;5048312;28;20128;-62
2022/10/15 03:28:30;;;;;;;9.02;4.70;;;9.70;99.90;;;;;;5047879;28;20049;-63
2022/10/15 03:30:57;;;;;;;11.07;5.05;;;9.70;99.90;;;;;;5048319;28;20107;-63
2022/10/15 03:33:24;;;;;;;9.15;5.18;;;9.60;99.90;;;;;;5047950;28;20049;-63
2022/10/15 03:35:51;;;;;;;8.57;5.25;;;9.60;99.90;;;;;;5048061;28;20115;-63
2022/10/15 03:38:18;;;;;;;11.27;5.38;;;9.60;99.90;;;;;;5048145;28;20077;-62
2022/10/15 03:40:45;;;;;;;10.07;4.82;;;9.60;99.90;;;;;;5047797;28;20492;-64
2022/10/15 03:43:11;;;;;;;8.15;4.57;;;9.60;99.90;;;;;;5046703;28;20053;-63
2022/10/15 03:45:38;;;;;;;8.98;4.97;;;9.60;99.90;;;;;;5047941;28;20056;-63
2022/10/15 03:48:05;;;;;;;8.80;4.13;;;9.60;99.90;;;;;;5047856;28;20057;-61
2022/10/15 03:50:32;;;;;;;7.70;4.78;;;9.60;99.90;;;;;;5047963;28;20052;-61
2022/10/15 03:53:01;;;;;;;6.47;3.72;;;9.60;99.90;;;;;;5046582;28;20049;-62
2022/10/15 03:55:28;;;;;;;7.20;4.50;;;9.60;99.90;;;;;;5046608;28;20045;-63
2022/10/15 03:57:54;;;;;;;7.00;4.20;;;9.60;99.90;;;;;;5047650;28;20202;-63
2022/10/15 04:00:21;;;;;;;9.15;4.13;;;9.60;99.90;;;;;;5049306;28;20076;-62
2022/10/15 04:02:48;;;;;;;6.47;3.55;;;9.70;99.90;;;;;;5051709;28;20045;-62
2022/10/15 04:05:14;;;;;;;9.07;4.68;;;9.60;99.90;;;;;;5034843;28;20040;-63
2022/10/15 04:07:41;;;;;;;5.35;3.55;;;9.60;99.90;;;;;;5031768;28;20064;-63
2022/10/15 04:10:08;;;;;;;6.95;3.20;;;9.50;99.90;;;;;;5048972;28;20041;-62
2022/10/15 04:12:35;;;;;;;5.82;2.53;;;9.50;99.90;;;;;;5051811;28;20052;-63
2022/10/15 04:15:02;;;;;;;9.23;3.78;;;9.40;99.90;;;;;;5051173;28;20103;-62
2022/10/15 04:17:29;;;;;;;6.38;3.40;;;9.40;99.90;;;;;;5049988;28;20060;-63
2022/10/15 04:19:55;;;;;;;5.85;3.35;;;9.40;99.90;;;;;;5051066;28;20519;-62
2022/10/15 04:22:22;;;;;;;7.88;3.97;;;9.30;99.90;;;;;;5051090;28;20530;-62
2022/10/15 04:24:49;;;;;;;5.60;3.30;;;9.30;99.90;;;;;;5050956;28;20112;-63
2022/10/15 04:27:16;;;;;;;4.88;2.47;;;9.30;99.90;;;;;;5050998;28;20055;-63
2022/10/15 04:29:42;;;;;;;7.45;3.03;;;9.30;99.90;;;;;;5051118;28;20047;-62
2022/10/15 04:32:13;;;;;;;5.75;2.83;;;9.20;99.90;;;;;;5051107;28;20053;-63
2022/10/15 04:34:39;;;;;;;8.85;3.22;;;9.20;99.90;;;;;;5050795;28;20056;-62
2022/10/15 04:37:06;;;;;;;5.03;2.90;;;9.10;99.90;;;;;;5051016;28;20053;-62
2022/10/15 04:39:33;;;;;;;6.70;3.42;;;9.10;99.90;;;;;;5050732;28;20047;-63
2022/10/15 04:41:59;;;;;;;4.97;2.92;;;9.10;99.90;;;;;;5050787;28;20068;-63
2022/10/15 04:44:26;;;;;;;5.50;3.13;;;9.10;99.90;;;;;;5050509;28;20121;-63
2022/10/15 04:46:53;;;;;;;4.50;2.63;;;9.10;99.90;;;;;;5050776;28;20059;-62
2022/10/15 04:49:19;;;;;;;4.72;2.58;;;9.10;99.90;;;;;;5050921;28;20126;-62
2022/10/15 04:51:46;;;;;;;6.35;2.90;;;9.10;99.90;;;;;;5050416;28;20052;-62
2022/10/15 04:54:13;;;;;;;3.92;2.70;;;9.10;99.90;;;;;;5050691;28;20052;-63
2022/10/15 04:56:40;;;;;;;5.07;2.85;;;9.10;99.90;;;;;;5050571;28;20049;-61
2022/10/15 04:59:07;;;;;;;8.88;3.47;;;9.10;99.90;;;;;;5050779;28;20045;-62
2022/10/15 05:01:34;;;;;;;3.42;2.28;;;9.10;99.90;;;;;;5050324;28;20049;-62
2022/10/15 05:04:00;;;;;;;7.53;3.17;;;9.10;99.90;;;;;;5050389;28;20143;-61
2022/10/15 05:06:27;;;;;;;6.00;2.88;;;9.10;99.90;;;;;;5050265;28;20511;-62
2022/10/15 05:08:54;;;;;;;4.88;3.30;;;9.10;99.90;;;;;;5050208;28;20045;-63
2022/10/15 05:11:22;;;;;;;4.75;3.00;;;9.00;99.90;;;;;;5050032;28;20041;-63
2022/10/15 05:13:49;;;;;;;6.35;3.20;;;9.00;99.90;;;;;;5050264;28;20442;-62
2022/10/15 05:16:17;;;;;;;5.28;3.60;;;9.00;99.90;;;;;;5050247;28;20047;-62
2022/10/15 05:18:44;;;;;;;8.00;4.05;;;9.00;99.90;;;;;;5049906;28;20527;-61
2022/10/15 05:21:11;;;;;;;6.75;3.70;;;9.00;99.90;;;;;;5049922;28;20045;-62
2022/10/15 05:23:38;;;;;;;7.32;3.85;;;9.00;99.90;;;;;;5050019;28;20563;-63
2022/10/15 05:26:06;;;;;;;10.43;3.65;;;9.10;99.90;;;;;;5049855;28;20490;-62
2022/10/15 05:28:33;;;;;;;6.70;4.00;;;9.10;99.90;;;;;;5050046;28;20484;-62
2022/10/15 05:31:08;;;;;;;7.40;5.18;;;9.00;99.90;;;;;;5049862;28;20045;-63
2022/10/15 05:33:39;;;;;;;7.70;3.40;;;9.00;99.90;;;;;;5049966;28;20045;-64
2022/10/15 05:36:09;;;;;;;7.18;4.40;;;9.00;99.90;;;;;;5050038;28;20056;-63
2022/10/15 05:38:36;;;;;;;4.65;3.33;;;9.00;99.90;;;;;;5046323;28;20055;-63
2022/10/15 05:41:02;;;;;;;5.68;3.60;;;9.00;99.90;;;;;;5049728;28;20052;-63
2022/10/15 05:43:29;;;;;;;6.45;4.28;;;8.90;99.90;;;;;;5049298;28;20060;-63
2022/10/15 05:45:56;;;;;;;8.63;4.07;;;9.00;99.90;;;;;;5049763;28;20071;-63
2022/10/15 05:48:23;;;;;;;6.50;3.40;;;8.90;99.90;;;;;;5048099;28;20055;-63
2022/10/15 05:50:49;;;;;;;5.45;3.50;;;8.90;99.90;;;;;;5049711;28;20052;-62
2022/10/15 05:53:16;;;;;;;7.63;3.75;;;8.90;99.90;;;;;;5049438;28;20080;-62
2022/10/15 05:55:43;;;;;;;5.93;3.58;;;8.80;99.90;;;;;;5049705;28;20123;-62
2022/10/15 05:58:10;;;;;;;7.50;4.60;;;8.90;99.90;;;;;;5049323;28;20049;-63
2022/10/15 06:00:38;;;;;;;7.57;4.15;;;8.80;99.90;;;;;;5049333;28;20045;-63
2022/10/15 06:03:05;;;;;;;8.15;3.90;;;8.80;99.90;;;;;;5049317;28;20071;-63
2022/10/15 06:05:32;;;;;;;5.40;3.53;;;8.80;99.90;;;;;;5048265;28;20199;-62
2022/10/15 06:07:58;;;;;;;8.27;4.00;;;8.80;99.90;;;;;;5049415;28;20127;-63
2022/10/15 06:10:27;;;;;;;9.05;3.15;;;8.70;99.90;;;;;;5049389;28;20037;-62
2022/10/15 06:12:54;;;;;;;5.00;3.20;;;8.80;99.90;;;;;;5049437;28;20057;-62
2022/10/15 06:15:21;;;;;;;8.88;4.70;;;8.80;99.90;;;;;;5049392;28;20119;-63
2022/10/15 06:17:51;;;;;;;5.85;3.38;;;8.70;99.90;;;;;;5049064;28;20056;-63
2022/10/15 06:20:18;;;;;;;6.32;3.97;;;8.70;99.90;;;;;;5049301;28;20041;-63
2022/10/15 06:22:45;;;;;;;7.88;3.58;;;8.70;99.90;;;;;;5047909;28;20558;-63
2022/10/15 06:25:12;;;;;;;6.03;3.38;;;8.70;99.90;;;;;;5047524;28;20484;-63
2022/10/15 06:27:39;;;;;;;4.90;2.97;;;8.70;99.90;;;;;;5048759;28;20059;-63
2022/10/15 06:30:07;;;;;;;6.38;4.35;;;8.70;99.90;;;;;;5048681;28;20063;-63
2022/10/15 06:32:34;;;;;;;7.40;3.78;;;8.60;99.90;;;;;;5048816;28;20057;-62
2022/10/15 06:35:01;;;;;;;6.57;3.90;;;8.60;99.90;;;;;;5048721;28;20052;-62
2022/10/15 06:37:28;;;;;;;8.38;4.20;;;8.70;99.90;;;;;;5048978;28;20080;-64
2022/10/15 06:39:55;;;;;;;7.60;3.38;;;8.70;99.90;;;;;;5047546;28;20451;-62
2022/10/15 06:42:22;;;;;;;7.68;4.55;;;8.70;99.90;;;;;;5048543;28;20468;-64
2022/10/15 06:44:49;;;;;;;9.07;4.07;;;8.70;99.90;;;;;;5048613;28;20036;-63
2022/10/15 06:47:16;;;;;;;13.30;3.40;;;8.80;99.90;;;;;;5048809;28;20076;-63
2022/10/15 06:49:42;;;;;;;7.82;4.28;;;8.70;99.90;;;;;;5048113;28;20511;-62
2022/10/15 06:52:09;;;;;;;6.93;3.92;;;8.70;99.90;;;;;;5048183;28;20063;-62
2022/10/15 06:54:36;;;;;;;6.10;3.67;;;8.70;99.90;;;;;;5048125;28;20041;-65
2022/10/15 06:57:03;;;;;;;8.63;4.10;;;8.70;99.90;;;;;;5047983;28;20140;-62
2022/10/15 06:59:29;;;;;;;13.02;5.13;;;8.70;99.90;;;;;;5047453;28;20045;-63
2022/10/15 07:01:56;;;;;;;8.18;4.05;;;8.70;99.90;;;;;;5046247;28;20053;-61
2022/10/15 07:04:23;;;;;;;7.68;4.63;;;8.90;99.90;;;;;;4698792;28;10000284;-63
2022/10/15 07:06:50;;;;;;;9.38;4.28;;;9.00;99.90;;;;;;5044391;28;20076;-63
2022/10/15 07:09:18;;;;;;;16.17;4.78;;;9.10;99.90;;;;;;5044687;28;20049;-63
2022/10/15 07:11:44;;;;;;;6.78;5.05;;;9.30;99.90;;;;;;5045215;28;20041;-63
2022/10/15 07:14:13;;;;;;;13.27;5.95;;;9.40;99.90;;;;;;5044870;28;20055;-63
2022/10/15 07:16:40;;;;;;;13.65;5.75;;;9.70;99.90;;;;;;5043555;28;20080;-63
2022/10/15 07:19:07;;;;;;;8.75;6.10;;;9.80;99.90;;;;;;5044683;28;20053;-63
2022/10/15 07:21:34;;;;;;;9.32;5.03;;;10.00;99.90;;;;;;5044570;28;20056;-61
2022/10/15 07:24:01;;;;;;;8.55;5.70;;;10.20;99.90;;;;;;5044965;28;20049;-63
2022/10/15 07:26:29;;;;;;;11.05;4.40;;;10.40;99.90;;;;;;5044630;28;20507;-63
2022/10/15 07:28:56;;;;;;;10.50;5.32;;;10.60;99.90;;;;;;5045058;28;20052;-65
2022/10/15 07:31:23;;;;;;;9.05;4.38;;;10.80;99.90;;;;;;5045040;28;20315;-64
2022/10/15 07:33:51;;;;;;;7.82;4.07;;;11.00;99.90;;;;;;5045753;28;20106;-63
2022/10/15 07:36:19;;;;;;;10.35;4.40;;;11.10;99.90;;;;;;5048702;28;20103;-63
2022/10/15 07:38:46;;;;;;;7.43;3.88;;;11.30;99.90;;;;;;5048157;28;20045;-64
2022/10/15 07:41:13;;;;;;;7.20;4.40;;;11.40;99.90;;;;;;5048867;28;20415;-63
2022/10/15 07:43:40;;;;;;;6.35;3.88;;;11.50;99.90;;;;;;5048853;28;20346;-63
2022/10/15 07:46:06;;;;;;;5.18;2.67;;;11.60;99.90;;;;;;5048820;28;20525;-63
2022/10/15 07:48:33;;;;;;;8.55;3.15;;;11.70;99.90;;;;;;5048823;28;20071;-62
2022/10/15 07:51:03;;;;;;;7.15;2.50;;;11.80;99.90;;;;;;5049199;28;20476;-63
2022/10/15 07:53:30;;;;;;;4.70;2.30;;;11.90;99.90;;;;;;5028161;28;20087;-62
2022/10/15 07:56:00;;;;;;;10.00;3.72;;;11.90;99.90;;;;;;5031710;28;20048;-63
2022/10/15 07:58:29;;;;;;;9.50;2.60;;;12.00;99.90;;;;;;5048732;28;20041;-63
2022/10/15 08:01:02;;;;;;;7.35;2.92;;;12.10;99.90;;;;;;5048234;28;20053;-63
2022/10/15 08:03:29;;;;;;;7.00;2.45;;;12.20;99.90;;;;;;5045512;28;20041;-62
2022/10/15 08:05:58;;;;;;;9.18;2.85;;;12.30;99.90;;;;;;5048051;28;20045;-62
2022/10/15 08:08:29;;;;;;;4.10;1.95;;;12.30;99.90;;;;;;5047776;28;20040;-62
2022/10/15 08:10:56;;;;;;;4.82;1.55;;;12.40;99.90;;;;;;5048176;28;20053;-63
2022/10/15 08:13:23;;;;;;;4.93;1.73;;;12.50;99.90;;;;;;5047980;28;20166;-62
2022/10/15 08:15:50;;;;;;;7.30;1.70;;;12.50;99.90;;;;;;5044626;28;20045;-62
2022/10/15 08:18:20;;;;;;;6.47;1.52;;;12.60;99.90;;;;;;5045701;28;20053;-62
2022/10/15 08:20:47;;;;;;;5.57;1.17;;;12.70;99.90;;;;;;5046806;28;20044;-62
2022/10/15 08:23:15;;;;;;;4.20;1.20;;;12.80;99.90;;;;;;5046794;28;20048;-62
2022/10/15 08:25:42;;;;;;;7.72;1.27;;;12.80;99.90;;;;;;5047162;28;20052;-62
2022/10/15 08:28:09;;;;;;;11.23;1.58;;;12.90;99.90;;;;;;5045983;28;20041;-62
2022/10/15 08:30:37;;;;;;;7.15;1.30;;;13.00;99.90;;;;;;5045413;28;20045;-62
2022/10/15 08:33:03;;;;;;;3.13;1.20;;;13.10;99.90;;;;;;5047569;28;20472;-63
2022/10/15 08:35:34;;;;;;;7.53;1.20;;;13.30;99.90;;;;;;5047680;28;20049;-61
2022/10/15 08:38:01;;;;;;;4.72;1.00;;;13.30;99.90;;;;;;5046989;28;20048;-62
2022/10/15 08:40:28;;;;;;;3.08;1.23;;;13.40;99.90;;;;;;5046091;28;20534;-63
2022/10/15 08:42:55;;;;;;;2.80;0.77;;;13.50;99.90;;;;;;5045671;28;20049;-62
2022/10/15 08:45:24;;;;;;;5.25;1.02;;;13.60;99.90;;;;;;5028197;28;20041;-64
2022/10/15 08:48:17;;;;;;;10.27;1.10;;;13.80;99.90;;;;;;5044576;28;20064;-63
2022/10/15 08:51:18;;;;;;;4.85;0.70;;;14.20;99.90;;;;;;5023729;28;20575;-63
2022/10/15 08:53:48;;;;;;;3.50;0.73;;;14.50;99.90;;;;;;5036469;28;20048;-62
2022/10/15 08:56:18;;;;;;;4.00;0.70;;;14.80;99.90;;;;;;5046577;28;20053;-63
2022/10/15 08:59:03;;;;;;;6.97;1.30;;;15.10;99.90;;;;;;5046119;28;20127;-63
2022/10/15 09:01:55;;;;;;;2.15;0.90;;;15.30;99.90;;;;;;5046212;28;20056;-62
2022/10/15 09:04:46;;;;;;;2.20;1.05;;;15.50;99.90;;;;;;5045978;28;20413;-62
2022/10/15 09:07:18;;;;;;;11.40;1.90;;;15.60;99.90;;;;;;5047192;28;20052;-63
2022/10/15 09:09:53;;;;;;;2.60;1.10;;;15.50;99.90;;;;;;5029382;28;20044;-63
2022/10/15 09:12:42;;;;;;;1.55;0.55;;;15.30;99.90;;;;;;5025768;28;20140;-63
2022/10/15 09:15:11;;;;;;;6.50;0.73;;;15.10;99.90;;;;;;5043620;28;20128;-63
2022/10/15 09:17:38;;;;;;;3.00;0.60;;;15.00;99.90;;;;;;5026421;28;20173;-63
2022/10/15 09:20:06;;;;;;;4.22;0.70;;;15.00;99.90;;;;;;5041097;28;20080;-62
2022/10/15 09:22:33;;;;;;;3.22;0.60;;;14.90;99.90;;;;;;5045897;28;20079;-63
2022/10/15 09:25:13;;;;;;;6.75;0.80;;;14.90;99.90;;;;;;5046975;28;20045;-64
2022/10/15 09:27:40;;;;;;;0.77;0.52;;;14.90;99.90;;;;;;5046381;28;20053;-63
2022/10/15 09:30:21;;;;;;;4.65;1.50;;;14.90;99.90;;;;;;5046630;28;20503;-63
2022/10/15 09:33:12;;;;;;;3.33;0.60;;;14.90;99.90;;;;;;5047051;28;20049;-62
2022/10/15 09:35:50;;;;;;;3.47;0.63;;;15.00;99.90;;;;;;5047201;28;20828;-64
2022/10/15 09:38:38;;;;;;;1.10;0.70;;;14.90;99.90;;;;;;5029925;28;20538;-64
2022/10/15 09:41:27;;;;;;;6.03;0.82;;;14.90;99.90;;;;;;5046488;28;20055;-64
2022/10/15 09:43:55;;;;;;;4.47;0.60;;;15.00;99.90;;;;;;5046768;28;20057;-62
2022/10/15 09:46:22;;;;;;;2.42;0.88;;;15.00;99.90;;;;;;5045445;28;20136;-63
2022/10/15 09:49:05;;;;;;;5.55;1.52;;;15.00;99.90;;;;;;5046682;28;20045;-63
2022/10/15 09:51:44;;;;;;;2.40;1.02;;;15.00;99.90;;;;;;5029694;28;20064;-63
2022/10/15 09:54:17;;;;;;;1.80;0.60;;;15.00;99.90;;;;;;5030594;28;20045;-63
2022/10/15 09:56:56;;;;;;;7.00;0.93;;;15.10;99.90;;;;;;5046078;28;20060;-63
2022/10/15 09:59:24;;;;;;;2.42;1.40;;;15.10;99.90;;;;;;5045707;28;20057;-65
2022/10/15 10:02:17;;;;;;;6.82;0.95;;;15.10;99.90;;;;;;5046610;28;20045;-64
2022/10/15 10:04:44;;;;;;;6.27;1.23;;;15.20;99.90;;;;;;5046215;28;20041;-64
2022/10/15 10:07:31;;;;;;;5.57;0.77;;;15.20;99.90;;;;;;5043332;28;20053;-61
2022/10/15 10:10:04;;;;;;;5.68;0.95;;;15.20;99.90;;;;;;5046366;28;20088;-62
2022/10/15 10:12:35;;;;;;;3.47;1.00;;;15.30;99.90;;;;;;5028509;28;20044;-67
2022/10/15 10:15:08;;;;;;;3.33;0.70;;;15.30;99.90;;;;;;5044999;28;20566;-64
2022/10/15 10:17:35;;;;;;;1.73;0.90;;;15.40;99.90;;;;;;5027527;28;20093;-64
2022/10/15 10:20:08;;;;;;;3.15;0.90;;;15.50;99.90;;;;;;5046675;28;20135;-63
2022/10/15 10:22:53;;;;;;;3.65;1.25;;;15.50;99.90;;;;;;5045975;28;20144;-62
2022/10/15 10:25:26;;;;;;;12.02;5.43;;;15.60;99.90;;;;;;5046075;28;20056;-63
2022/10/15 10:27:53;;;;;;;5.88;1.60;;;15.60;99.90;;;;;;5046021;28;20054;-62
2022/10/15 10:30:20;;;;;;;7.63;1.33;;;15.80;99.90;;;;;;5028660;28;20143;-63
2022/10/15 10:32:47;;;;;;;5.20;1.00;;;15.80;99.90;;;;;;5045068;28;20059;-62
2022/10/15 10:35:21;;;;;;;6.40;1.20;;;15.80;99.90;;;;;;5044891;28;20509;-63
2022/10/15 10:37:48;;;;;;;3.50;0.93;;;15.80;99.90;;;;;;5045773;28;20049;-62
2022/10/15 10:40:28;;;;;;;3.78;0.98;;;15.90;99.90;;;;;;5044678;28;20048;-63
2022/10/15 10:43:10;;;;;;;7.07;1.30;;;16.00;99.90;;;;;;5045727;28;20120;-63
2022/10/15 10:45:37;;;;;;;2.38;0.68;;;16.20;99.90;;;;;;5028521;28;20069;-64
2022/10/15 10:48:22;;;;;;;4.43;1.00;;;16.30;99.90;;;;;;5043157;28;20051;-64
2022/10/15 10:51:00;;;;;;;5.30;1.02;;;16.30;99.90;;;;;;5028904;28;20076;-64
2022/10/15 10:53:27;;;;;;;2.78;0.80;;;16.30;99.90;;;;;;5045429;28;20476;-65
2022/10/15 10:55:54;;;;;;;4.80;0.70;;;16.40;99.90;;;;;;5029020;28;20064;-65
2022/10/15 10:58:22;;;;;;;5.88;2.55;;;16.30;99.90;;;;;;5041694;28;20045;-59
2022/10/15 11:00:54;;;;;;;3.97;1.25;;;16.40;99.90;;;;;;5048859;28;20055;-63
2022/10/15 11:03:36;;;;;;;4.22;1.02;;;16.50;99.90;;;;;;5048224;28;20049;-63
2022/10/15 11:06:06;;;;;;;5.93;0.88;;;16.60;99.90;;;;;;5048376;28;20052;-62
2022/10/15 11:08:39;;;;;;;6.93;0.98;;;16.60;99.90;;;;;;5048045;28;20136;-63
2022/10/15 11:11:19;;;;;;;2.63;0.80;;;16.60;99.90;;;;;;5047175;28;20139;-64
2022/10/15 11:14:02;;;;;;;4.43;1.00;;;16.70;99.90;;;;;;5048399;28;20045;-62
2022/10/15 11:16:34;;;;;;;3.10;1.00;;;16.80;99.90;;;;;;5048597;28;20067;-63
2022/10/15 11:19:33;;;;;;;3.65;0.93;;;16.80;99.90;;;;;;5046987;28;20220;-64
2022/10/15 11:22:42;;;;;;;5.90;1.20;;;16.90;99.90;;;;;;5015895;28;20049;-63
2022/10/15 11:25:27;;;;;;;5.05;1.63;;;17.00;99.90;;;;;;5043693;28;20053;-62
2022/10/15 11:28:23;;;;;;;4.70;0.95;;;17.00;99.90;;;;;;5047352;28;20048;-62
2022/10/15 11:31:02;;;;;;;6.93;1.00;;;17.00;99.90;;;;;;5036886;28;20037;-62
2022/10/15 11:34:01;;;;;;;4.32;0.88;;;17.10;99.90;;;;;;5047841;28;20127;-64
2022/10/15 11:36:51;;;;;;;4.13;1.10;;;17.00;99.90;;;;;;5048282;28;20072;-63
2022/10/15 11:39:43;;;;;;;8.00;1.60;;;16.80;99.90;;;;;;5046178;28;20041;-63
2022/10/15 11:42:24;;;;;;;7.82;1.17;;;16.60;99.90;;;;;;5046277;28;20048;-61
2022/10/15 11:44:59;;;;;;;4.35;1.20;;;16.50;99.90;;;;;;5047527;28;20053;-63
2022/10/15 11:47:47;;;;;;;9.23;1.77;;;16.50;99.90;;;;;;5048183;28;20045;-63
2022/10/15 11:50:38;;;;;;;3.20;1.08;;;16.40;99.90;;;;;;5046279;28;20044;-66
2022/10/15 11:53:23;;;;;;;5.30;0.70;;;16.40;99.90;;;;;;5027387;28;20056;-63
2022/10/15 11:56:04;;;;;;;4.60;0.60;;;16.40;99.90;;;;;;5047043;28;20056;-64
2022/10/15 11:58:58;;;;;;;4.68;1.08;;;16.30;99.90;;;;;;5048543;28;20266;-63
2022/10/15 12:01:33;;;;;;;3.17;0.75;;;16.40;99.90;;;;;;5047150;28;20472;-63
2022/10/15 12:04:08;;;;;;;6.63;1.10;;;16.40;99.90;;;;;;5046791;28;20044;-67
2022/10/15 12:06:36;;;;;;;1.85;0.70;;;16.40;99.90;;;;;;5044274;28;20041;-62
2022/10/15 12:09:14;;;;;;;8.24;1.19;;;16.20;99.90;;;;;;4972650;28;10001235;-64
2022/10/15 12:11:47;;;;;;;5.20;2.03;;;16.30;99.90;;;;;;5007414;28;20354;-62
2022/10/15 12:14:30;;;;;;;3.97;1.15;;;16.30;99.90;;;;;;5040688;28;20168;-62
2022/10/15 12:17:39;;;;;;;4.82;0.82;;;16.30;99.90;;;;;;5026965;28;20053;-63
2022/10/15 12:20:11;;;;;;;6.65;1.27;;;16.30;99.90;;;;;;5043407;28;20157;-63
2022/10/15 12:23:00;;;;;;;6.15;1.27;;;16.20;99.90;;;;;;5046897;28;20124;-64
2022/10/15 12:25:33;;;;;;;3.55;1.00;;;16.20;99.90;;;;;;5046862;28;20052;-63
2022/10/15 12:28:12;;;;;;;9.73;1.60;;;16.10;99.90;;;;;;5048769;28;20076;-62
2022/10/15 12:30:41;;;;;;;3.03;0.73;;;16.20;99.90;;;;;;5048026;28;20052;-63
2022/10/15 12:33:36;;;;;;;5.28;1.13;;;16.10;99.90;;;;;;5030792;28;20068;-63
2022/10/15 12:36:08;;;;;;;6.63;1.52;;;16.30;99.90;;;;;;5047847;28;20033;-64
2022/10/15 12:38:39;;;;;;;5.55;1.05;;;16.30;99.90;;;;;;5010983;28;20153;-63
2022/10/15 12:41:08;;;;;;;8.35;2.03;;;16.40;99.90;;;;;;5046806;28;20049;-63
2022/10/15 12:44:02;;;;;;;5.88;1.10;;;16.40;99.90;;;;;;5047861;28;20053;-63
2022/10/15 12:46:38;;;;;;;3.53;1.20;;;16.40;99.90;;;;;;5044263;28;20044;-63
2022/10/15 12:49:31;;;;;;;4.25;1.40;;;16.40;99.90;;;;;;5029012;28;20443;-65
2022/10/15 12:51:58;;;;;;;7.45;1.25;;;16.40;99.90;;;;;;5044518;28;20048;-63
2022/10/15 12:54:34;;;;;;;4.25;1.27;;;16.40;99.90;;;;;;5049299;28;20411;-64
2022/10/15 12:57:03;;;;;;;7.13;1.48;;;16.50;99.90;;;;;;5050327;28;20171;-63
2022/10/15 12:59:53;;;;;;;3.55;1.50;;;16.50;99.90;;;;;;5033192;28;20132;-62
2022/10/15 13:02:38;;;;;;;5.40;2.03;;;16.60;99.90;;;;;;5050379;28;20060;-61
2022/10/15 13:05:06;;;;;;;5.88;1.70;;;16.60;99.90;;;;;;5050485;28;20175;-62
2022/10/15 13:07:36;;;;;;;6.95;0.98;;;16.70;99.90;;;;;;5048807;28;20052;-62
2022/10/15 13:10:03;;;;;;;7.05;1.30;;;16.60;99.90;;;;;;5048964;28;20056;-62
2022/10/15 13:12:30;;;;;;;11.38;1.33;;;16.60;99.90;;;;;;5049035;28;20047;-63
2022/10/15 13:15:02;;;;;;;8.52;1.80;;;16.70;99.90;;;;;;5049173;28;20385;-62